»·PEaware :: FDX515 KCEC-KPDX

FDX515 :: KCEC-KPDX

FLIGHT INFORMATION

Flight Status: Arrived
Operator:
Federal Express
More flights by this operator :: More flights under this callsign
Pilot: Doug L. (8712)
Aircraft: BOEING 727-200
(B722)
More flights by this aircraft type
Origin: KCEC McNamara
United States
Destination: KPDX Portland Intl
United States
More flights between these airports :: More routes between these airports
Route: +SPNSR TMBRS2
File this flight plan on PilotEdge
Remarks:
Altitude:
(Current/Filed)
29,000ft
Speed:
(Current/Filed)
425kts
Departed: 14-Oct-18 06:16 PM
Arrived: 14-Oct-18 07:07 PM
Distance/Time
Traveled:
239nm/0:50
Distance/Time
To Go:
Arrived

Flight Plot

Page will automatically refresh every two minutes.

Flight plan parsing failed; only flown route is shown


Map Options




Map Legend


Flown Route
Filed Route
Departure Airport
Arrival Airport
Navaid (VOR, NDB)
Fix

Horizontal Profiles

Position Reports

Time Latitude Longitude Heading Altitude Ground
Speed
14-Oct-18 18:10 41.778726 -124.235766 159 62ft 0kts
14-Oct-18 18:11 41.778726 -124.235766 159 62ft 0kts
14-Oct-18 18:12 41.778726 -124.235766 159 62ft 0kts
14-Oct-18 18:13 41.778724 -124.235765 159 62ft 0kts
14-Oct-18 18:14 41.780412 -124.237240 313 64ft 20kts
14-Oct-18 18:15 41.783072 -124.241111 321 61ft 0kts
14-Oct-18 18:16 41.783072 -124.241111 321 61ft 0kts
14-Oct-18 18:17 41.784318 -124.241718 2 61ft 24kts
14-Oct-18 18:18 41.777193 -124.230617 136 91ft 137kts
14-Oct-18 18:19 41.742202 -124.223901 244 1793ft 196kts
14-Oct-18 18:20 41.773202 -124.229500 98 4775ft 235kts
14-Oct-18 18:21 41.718644 -124.221879 199 8359ft 237kts
14-Oct-18 18:22 41.664643 -124.184063 96 10090ft 281kts
14-Oct-18 18:23 41.712897 -124.116793 12 12890ft 291kts
14-Oct-18 18:24 41.792603 -124.093356 22 15450ft 299kts
14-Oct-18 18:25 41.867336 -124.031501 37 17061ft 341kts
14-Oct-18 18:26 41.940762 -123.950485 40 19525ft 347kts
14-Oct-18 18:27 42.014749 -123.864782 40 21580ft 357kts
14-Oct-18 18:28 42.090109 -123.776660 40 23365ft 366kts
14-Oct-18 18:29 42.169191 -123.683811 40 24793ft 379kts
14-Oct-18 18:30 42.248506 -123.590368 40 26073ft 391kts
14-Oct-18 18:31 42.330752 -123.493095 39 27578ft 391kts
14-Oct-18 18:32 42.411777 -123.396940 39 28857ft 393kts
14-Oct-18 18:33 42.497281 -123.295126 40 28902ft 424kts
14-Oct-18 18:34 42.588079 -123.186547 40 29209ft 445kts
14-Oct-18 18:35 42.682691 -123.072934 40 29206ft 457kts
14-Oct-18 18:36 42.777468 -122.958641 39 29204ft 453kts
14-Oct-18 18:37 42.882304 -122.875954 10 29218ft 443kts
14-Oct-18 18:38 43.004297 -122.859288 5 29181ft 441kts
14-Oct-18 18:39 43.125392 -122.847929 4 29179ft 439kts
14-Oct-18 18:40 43.247172 -122.836871 4 29175ft 438kts
14-Oct-18 18:41 43.368325 -122.825852 4 28792ft 445kts
14-Oct-18 18:42 43.493429 -122.814366 5 27818ft 457kts
14-Oct-18 18:43 43.621042 -122.802577 5 26831ft 465kts
14-Oct-18 18:44 43.750509 -122.790563 5 25825ft 468kts
14-Oct-18 18:45 43.879820 -122.778515 5 24806ft 463kts
14-Oct-18 18:46 44.005821 -122.766725 5 24219ft 444kts
14-Oct-18 18:47 44.124340 -122.755584 5 24224ft 417kts
14-Oct-18 18:48 44.238466 -122.744472 6 22859ft 415kts
14-Oct-18 18:49 44.344590 -122.734065 6 20592ft 357kts
14-Oct-18 18:50 44.436722 -122.724911 7 18361ft 337kts
14-Oct-18 18:51 44.532361 -122.715396 6 16210ft 355kts
14-Oct-18 18:52 44.630127 -122.705666 7 14620ft 346kts
14-Oct-18 18:53 44.722729 -122.696375 7 13395ft 328kts
14-Oct-18 18:54 44.810216 -122.687562 7 12230ft 312kts
14-Oct-18 18:55 44.894744 -122.679036 7 11108ft 301kts
14-Oct-18 18:56 44.976767 -122.670736 7 10755ft 300kts
14-Oct-18 18:57 45.060726 -122.662191 6 9954ft 301kts
14-Oct-18 18:58 45.141737 -122.653969 5 9147ft 288kts
14-Oct-18 18:59 45.218608 -122.646154 5 8320ft 268kts
14-Oct-18 19:00 45.288444 -122.665855 342 7516ft 258kts
14-Oct-18 19:01 45.356231 -122.701850 341 6724ft 261kts
14-Oct-18 19:02 45.423123 -122.742432 334 4945ft 265kts
14-Oct-18 19:03 45.483290 -122.783158 0 3214ft 222kts
14-Oct-18 19:04 45.540124 -122.775095 12 2359ft 188kts
14-Oct-18 19:05 45.587017 -122.745362 36 1507ft 188kts
14-Oct-18 19:06 45.617387 -122.705861 78 772ft 135kts
14-Oct-18 19:07 45.607635 -122.653731 113 487ft 138kts
14-Oct-18 19:08 45.589658 -122.607323 117 41ft 109kts
14-Oct-18 19:09 45.583112 -122.593786 297 41ft 11kts
14-Oct-18 19:10 45.585268 -122.599354 298 41ft 20kts
14-Oct-18 19:11 45.586137 -122.605445 174 41ft 6kts
14-Oct-18 19:12 45.585710 -122.605402 178 41ft 0kts

Navigation Log

Ident Type
Flight plan parsing failed, navigation log unavailable